Time;durP1;ratioP1;P1;durP2;ratioP2;P2;SDS_P1;SDS_P2;PMS_P1;PMS_P2;Temp;Humidity;BMP_temperature;BMP_pressure;BME280_temperature;BME280_humidity;BME280_pressure;Samples;Min_cycle;Max_cycle;Signal;HPM_P1;HPM_P2
2021/05/31 00:00:18;;;;;;;7.03;6.20;;;;;;;9.77;100.00;99392.13;1716939;82;21058;-70
2021/05/31 00:02:46;;;;;;;7.15;6.45;;;;;;;9.79;100.00;99390.02;1728391;82;20997;-69
2021/05/31 00:05:14;;;;;;;;;;;;;;;9.80;100.00;99391.62;1739923;82;21152;-69
2021/05/31 00:07:41;;;;;;;9.53;7.30;;;;;;;9.80;100.00;99394.30;1717169;82;20163;-69
2021/05/31 00:10:09;;;;;;;9.30;6.37;;;;;;;9.81;100.00;99392.72;1699276;83;20907;-69
2021/05/31 00:12:36;;;;;;;11.35;6.85;;;;;;;9.82;100.00;99397.03;1715383;82;21165;-68
2021/05/31 00:15:05;;;;;;;10.88;7.03;;;;;;;9.86;100.00;99397.33;1731592;82;20939;-69
2021/05/31 00:17:31;;;;;;;9.48;6.50;;;;;;;9.88;100.00;99400.56;1735829;82;21500;-68
2021/05/31 00:19:58;;;;;;;10.38;6.47;;;;;;;9.92;100.00;99399.52;1738096;82;21035;-69
2021/05/31 00:22:25;;;;;;;12.90;7.12;;;;;;;9.92;100.00;99401.69;1721679;82;21069;-69
2021/05/31 00:24:54;;;;;;;6.78;6.05;;;;;;;9.93;100.00;99396.59;1734737;82;21704;-68
2021/05/31 00:27:21;;;;;;;12.58;7.03;;;;;;;9.94;100.00;99399.54;1722311;82;20965;-68
2021/05/31 00:29:48;;;;;;;7.83;6.72;;;;;;;9.94;100.00;99394.17;1694272;84;21060;-69
2021/05/31 00:32:14;;;;;;;8.78;7.00;;;;;;;9.94;100.00;99386.67;1715272;81;20942;-68
2021/05/31 00:34:43;;;;;;;13.55;6.95;;;;;;;9.93;100.00;99383.73;1693677;83;20949;-68
2021/05/31 00:37:11;;;;;;;9.70;6.75;;;;;;;9.91;100.00;99377.80;1721661;82;21053;-69
2021/05/31 00:39:40;;;;;;;;;;;;;;;9.87;100.00;99376.14;1717453;81;21092;-68
2021/05/31 00:42:07;;;;;;;8.88;7.10;;;;;;;9.87;100.00;99380.16;1730941;82;20186;-67
2021/05/31 00:44:34;;;;;;;8.78;6.87;;;;;;;9.83;100.00;99377.73;1719163;82;21154;-69
2021/05/31 00:47:01;;;;;;;11.73;7.20;;;;;;;9.81;100.00;99381.19;1718461;82;21089;-68
2021/05/31 00:49:35;;;;;;;9.93;7.00;;;;;;;9.79;100.00;99381.44;1734953;82;21052;-69
2021/05/31 00:51:57;;;;;;;14.38;7.28;;;;;;;9.78;100.00;99385.19;1733162;81;20986;-66
2021/05/31 00:54:24;;;;;;;17.23;6.85;;;;;;;9.75;100.00;99380.84;1720259;81;20961;-66
2021/05/31 00:56:51;;;;;;;11.45;6.50;;;;;;;9.76;100.00;99390.52;1704397;81;20998;-67
2021/05/31 00:59:18;;;;;;;11.43;7.03;;;;;;;9.76;100.00;99390.52;1746047;81;21032;-67
2021/05/31 01:01:48;;;;;;;8.97;6.67;;;;;;;9.75;100.00;99388.89;1749482;81;21097;-67
2021/05/31 01:04:14;;;;;;;;;;;;;;;9.74;100.00;99396.66;1738157;81;21057;-68
2021/05/31 01:06:46;;;;;;;;;;;;;;;9.74;100.00;99391.30;1744226;81;20195;-65
2021/05/31 01:09:18;;;;;;;14.18;5.80;;;;;;;9.73;100.00;99389.69;1748459;81;20189;-68
2021/05/31 01:12:25;;;;;;;6.83;5.62;;;;;;;9.70;100.00;99391.01;1746534;81;21038;-67
2021/05/31 01:15:10;;;;;;;6.87;6.17;;;;;;;9.68;100.00;99386.93;1751830;81;21138;-62
2021/05/31 01:17:50;;;;;;;12.75;5.85;;;;;;;9.65;100.00;99387.73;1760224;80;21029;-64
2021/05/31 01:20:47;;;;;;;10.10;5.62;;;;;;;9.64;100.00;99392.00;1747848;81;21021;-67
2021/05/31 01:23:14;;;;;;;8.75;6.20;;;;;;;9.65;100.00;99393.61;1742717;80;21679;-68
2021/05/31 01:25:56;;;;;;;16.37;6.70;;;;;;;9.66;100.00;99391.22;1736935;81;21296;-66
2021/05/31 01:28:46;;;;;;;8.53;5.92;;;;;;;9.64;100.00;99390.13;1759415;80;21711;-65
2021/05/31 01:31:16;;;;;;;10.82;6.78;;;;;;;9.64;100.00;99389.31;1649821;85;21091;-65
2021/05/31 01:33:42;;;;;;;9.40;6.10;;;;;;;9.64;100.00;99392.00;1675711;84;21077;-64
2021/05/31 01:36:10;;;;;;;6.65;6.05;;;;;;;9.61;100.00;99392.51;1676696;85;21747;-67
2021/05/31 01:38:37;;;;;;;11.95;6.35;;;;;;;9.61;100.00;99395.99;1673751;84;21086;-66
2021/05/31 01:41:05;;;;;;;8.38;5.83;;;;;;;9.62;100.00;99394.12;1638458;85;21165;-67
2021/05/31 01:43:32;;;;;;;8.03;6.22;;;;;;;9.62;100.00;99393.58;1680053;85;21119;-64
2021/05/31 01:46:00;;;;;;;11.90;6.97;;;;;;;9.61;100.00;99393.84;1678489;84;21129;-65
2021/05/31 01:48:29;;;;;;;9.05;6.17;;;;;;;9.60;100.00;99393.05;1698926;84;21071;-65
2021/05/31 01:50:58;;;;;;;;;;;;;;;9.61;100.00;99392.51;1684206;83;21101;-68
2021/05/31 01:53:24;;;;;;;12.03;6.60;;;;;;;9.61;100.00;99397.33;1677367;84;21047;-69
2021/05/31 01:55:51;;;;;;;11.65;7.08;;;;;;;9.60;100.00;99401.08;1660133;85;21030;-68
2021/05/31 01:58:18;;;;;;;10.53;6.12;;;;;;;9.58;100.00;99396.50;1666329;85;21817;-64
2021/05/31 02:00:44;;;;;;;9.28;6.17;;;;;;;9.58;100.00;99399.18;1678667;84;21121;-65
2021/05/31 02:03:11;;;;;;;7.50;5.72;;;;;;;9.59;100.00;99395.97;1675302;84;21616;-67
2021/05/31 02:05:39;;;;;;;9.88;6.67;;;;;;;9.57;100.00;99402.91;1670166;85;21679;-65
2021/05/31 02:08:06;;;;;;;17.98;7.30;;;;;;;9.57;100.00;99410.94;1740883;81;21564;-66
2021/05/31 02:10:34;;;;;;;8.23;5.85;;;;;;;9.58;100.00;99413.12;1765240;80;21037;-66
2021/05/31 02:13:03;;;;;;;9.63;6.53;;;;;;;9.58;100.00;99418.47;1749976;81;21064;-66
2021/05/31 02:15:47;;;;;;;9.28;6.03;;;;;;;9.58;100.00;99418.47;1751730;81;21060;-64
2021/05/31 02:18:32;;;;;;;7.30;6.35;;;;;;;9.58;100.00;99409.09;1731616;80;21107;-64
2021/05/31 02:21:10;;;;;;;8.78;6.42;;;;;;;9.57;100.00;99410.94;1734848;81;21085;-64
2021/05/31 02:23:37;;;;;;;6.58;5.67;;;;;;;9.56;100.00;99414.69;1748559;80;21080;-64
2021/05/31 02:26:04;;;;;;;12.70;6.75;;;;;;;9.57;100.00;99412.28;1769270;80;21029;-62
2021/05/31 02:28:31;;;;;;;7.65;6.15;;;;;;;9.56;100.00;99412.02;1724882;81;21040;-65
2021/05/31 02:31:01;;;;;;;8.53;7.00;;;;;;;9.54;100.00;99415.47;1753760;80;21096;-63
2021/05/31 02:33:28;;;;;;;10.93;7.12;;;;;;;9.55;100.00;99411.72;1737120;80;21133;-65
2021/05/31 02:35:55;;;;;;;15.32;5.92;;;;;;;9.58;100.00;99416.59;1735889;81;20995;-65
2021/05/31 02:38:22;;;;;;;6.47;5.87;;;;;;;9.60;100.00;99421.69;1752702;81;20939;-65
2021/05/31 02:40:48;;;;;;;7.65;6.42;;;;;;;9.61;100.00;99414.75;1759672;81;21077;-65
2021/05/31 02:43:35;;;;;;;8.63;5.78;;;;;;;9.59;100.00;99412.84;1712885;81;21693;-63
2021/05/31 02:46:02;;;;;;;7.40;5.90;;;;;;;9.60;100.00;99419.84;1789681;78;21054;-65
2021/05/31 02:48:30;;;;;;;5.95;5.35;;;;;;;9.61;100.00;99417.97;1756522;78;21514;-65
2021/05/31 02:50:57;;;;;;;12.85;7.40;;;;;;;9.60;100.00;99419.01;1784150;78;21066;-66
2021/05/31 02:53:25;;;;;;;7.35;6.00;;;;;;;9.59;100.00;99415.52;1770315;78;36867;-65
2021/05/31 02:55:53;;;;;;;7.85;6.60;;;;;;;9.62;100.00;99421.72;1783286;78;21104;-64
2021/05/31 02:58:20;;;;;;;11.93;7.45;;;;;;;9.62;100.00;99423.59;1768140;79;21014;-65
2021/05/31 03:00:48;;;;;;;10.20;6.12;;;;;;;9.61;100.00;99416.63;1737682;81;21074;-67
2021/05/31 03:03:15;;;;;;;10.10;6.47;;;;;;;9.62;100.00;99420.38;1778952;78;21108;-64
2021/05/31 03:05:42;;;;;;;12.10;6.58;;;;;;;9.64;100.00;99430.86;1800012;79;21744;-64
2021/05/31 03:08:11;;;;;;;10.05;6.10;;;;;;;9.63;100.00;99418.00;1776380;78;21106;-64
2021/05/31 03:10:39;;;;;;;8.95;5.92;;;;;;;9.61;100.00;99419.30;1768594;78;20981;-68
2021/05/31 03:13:06;;;;;;;11.80;6.45;;;;;;;9.63;100.00;99417.19;1762530;79;21687;-68
2021/05/31 03:15:34;;;;;;;10.13;6.97;;;;;;;9.65;100.00;99415.88;1772405;78;21124;-67
2021/05/31 03:18:01;;;;;;;10.25;6.35;;;;;;;9.64;100.00;99420.94;1774178;79;21628;-67
2021/05/31 03:20:29;;;;;;;11.12;6.22;;;;;;;9.62;100.00;99423.05;1768355;78;21657;-64
2021/05/31 03:22:56;;;;;;;15.60;6.90;;;;;;;9.61;100.00;99419.30;1769150;79;21034;-68
2021/05/31 03:25:23;;;;;;;8.23;6.67;;;;;;;9.63;100.00;99414.52;1790798;78;20970;-63
2021/05/31 03:27:52;;;;;;;12.60;6.78;;;;;;;9.65;100.00;99417.72;1766981;79;21054;-68
2021/05/31 03:30:19;;;;;;;;;;;;;;;9.69;100.00;99420.73;1769951;81;21063;-67
2021/05/31 03:32:45;;;;;;;10.05;7.22;;;;;;;9.66;100.00;99410.78;1753656;79;21082;-64
2021/05/31 03:35:15;;;;;;;9.80;7.62;;;;;;;9.66;100.00;99419.36;1776557;78;21038;-67
2021/05/31 03:37:43;;;;;;;13.48;7.05;;;;;;;9.69;100.00;99422.06;1772264;78;21013;-68
2021/05/31 03:40:11;;;;;;;7.97;7.03;;;;;;;9.69;100.00;99415.37;1742819;78;20974;-68
2021/05/31 03:42:38;;;;;;;9.23;6.80;;;;;;;9.72;100.00;99418.34;1771726;79;21061;-66
2021/05/31 03:45:07;;;;;;;10.18;6.90;;;;;;;9.73;100.00;99423.20;1780243;78;21126;-64
2021/05/31 03:47:35;;;;;;;8.65;6.30;;;;;;;9.71;100.00;99424.78;1740463;80;21117;-65
2021/05/31 03:50:02;;;;;;;12.43;6.35;;;;;;;9.70;100.00;99422.34;1762219;79;21141;-67
2021/05/31 03:52:29;;;;;;;12.18;7.37;;;;;;;9.66;100.00;99418.02;1711215;82;21099;-64
2021/05/31 03:54:56;;;;;;;11.70;7.45;;;;;;;9.70;100.00;99420.48;1783709;80;21086;-66
2021/05/31 03:57:23;;;;;;;7.90;6.78;;;;;;;9.72;100.00;99421.56;1784503;78;21107;-64
2021/05/31 03:59:52;;;;;;;12.30;8.85;;;;;;;9.66;100.00;99423.38;1783967;80;21022;-65
2021/05/31 04:02:20;;;;;;;10.82;7.62;;;;;;;9.66;100.00;99417.48;1784129;78;21142;-69
2021/05/31 04:04:51;;;;;;;12.50;6.30;;;;;;;9.70;100.00;99426.36;1758143;80;21588;-62
2021/05/31 04:12:49;;;;;;;9.23;7.67;;;;;;;9.66;100.00;99430.88;1762941;78;21636;-66
2021/05/31 04:15:16;;;;;;;9.35;6.83;;;;;;;9.68;100.00;99432.49;1784587;78;21207;-67
2021/05/31 04:17:43;;;;;;;9.33;7.33;;;;;;;9.70;100.00;99429.87;1784828;78;21054;-66
2021/05/31 04:20:11;;;;;;;11.40;7.03;;;;;;;9.69;100.00;99428.23;1763983;78;21094;-68
2021/05/31 04:22:40;;;;;;;12.47;6.30;;;;;;;9.74;100.00;99428.29;1783908;78;21078;-67
2021/05/31 04:25:08;;;;;;;8.08;6.17;;;;;;;9.78;100.00;99429.41;1784064;78;21058;-65
2021/05/31 04:27:35;;;;;;;9.53;6.35;;;;;;;9.82;100.00;99436.41;1784275;78;21105;-67
2021/05/31 04:30:03;;;;;;;6.70;5.85;;;;;;;9.84;100.00;99438.31;1784900;78;21067;-65
2021/05/31 04:32:29;;;;;;;9.98;6.17;;;;;;;9.85;100.00;99440.75;1782356;78;21094;-66
2021/05/31 04:34:56;;;;;;;18.42;5.53;;;;;;;9.87;100.00;99440.48;1784060;78;21770;-67
2021/05/31 04:37:23;;;;;;;7.80;5.30;;;;;;;9.91;100.00;99440.80;1783231;78;21584;-69
2021/05/31 04:39:50;;;;;;;11.25;6.20;;;;;;;9.90;100.00;99444.53;1784075;79;21110;-68
2021/05/31 04:42:17;;;;;;;17.85;5.47;;;;;;;9.95;100.00;99444.61;1768496;79;21021;-66
2021/05/31 04:44:44;;;;;;;9.40;5.83;;;;;;;10.02;100.00;99447.37;1750557;78;21476;-68
2021/05/31 04:47:11;;;;;;;6.30;4.92;;;;;;;10.00;100.00;99450.03;1815023;78;21064;-66
2021/05/31 04:49:38;;;;;;;7.08;5.35;;;;;;;10.04;100.00;99445.25;1781055;79;20962;-69
2021/05/31 04:52:06;;;;;;;7.42;4.80;;;;;;;10.07;100.00;99452.78;1792942;77;21063;-68
2021/05/31 04:54:34;;;;;;;11.60;5.50;;;;;;;10.11;100.00;99449.59;1809127;77;20969;-69
2021/05/31 04:57:01;;;;;;;7.62;5.17;;;;;;;10.10;100.00;99450.13;1783026;79;21104;-71
2021/05/31 04:59:28;;;;;;;11.80;5.85;;;;;;;10.09;100.00;99452.00;1801879;78;21117;-68
2021/05/31 05:01:55;;;;;;;9.30;5.60;;;;;;;10.12;100.00;99460.58;1815342;77;20949;-69
2021/05/31 05:04:23;;;;;;;9.48;5.10;;;;;;;10.16;100.00;99458.48;1805473;77;21104;-70
2021/05/31 05:06:51;;;;;;;6.95;5.37;;;;;;;10.20;100.00;99458.27;1812439;77;21798;-65
2021/05/31 05:09:19;;;;;;;11.73;5.45;;;;;;;10.22;100.00;99462.85;1767300;80;20969;-67
2021/05/31 05:11:48;;;;;;;9.95;5.08;;;;;;;10.29;100.00;99457.32;1791871;80;21080;-70
2021/05/31 05:14:15;;;;;;;11.93;4.67;;;;;;;10.35;100.00;99454.14;1792962;77;21113;-70
2021/05/31 05:16:42;;;;;;;9.33;4.47;;;;;;;10.43;100.00;99450.98;1760825;80;21137;-70
2021/05/31 05:19:13;;;;;;;8.50;4.87;;;;;;;10.36;100.00;99457.09;1787316;78;21667;-68
2021/05/31 05:21:41;;;;;;;12.03;5.03;;;;;;;10.35;100.00;99458.97;1787292;78;21050;-70
2021/05/31 05:24:12;;;;;;;6.08;4.87;;;;;;;10.42;100.00;99458.77;1786827;78;21085;-67
2021/05/31 05:26:39;;;;;;;12.03;5.17;;;;;;;10.49;100.00;99458.03;1787364;78;21077;-69
2021/05/31 05:29:06;;;;;;;10.35;5.92;;;;;;;10.57;100.00;99458.89;1787480;80;21103;-69
2021/05/31 05:31:33;;;;;;;14.07;5.33;;;;;;;10.66;100.00;99461.93;1787093;80;21088;-68
2021/05/31 05:34:02;;;;;;;12.73;4.85;;;;;;;10.67;100.00;99455.48;1786818;78;21017;-69
2021/05/31 05:36:44;;;;;;;9.95;5.25;;;;;;;10.70;100.00;99458.99;1761036;80;21121;-69
2021/05/31 05:50:01;;;;;;;9.13;5.17;;;;;;;10.72;100.00;99463.58;1755906;80;21678;-65
2021/05/31 05:52:48;;;;;;;10.83;5.23;;;;;;;10.77;100.00;99471.67;1755909;80;21101;-65
2021/05/31 05:55:15;;;;;;;12.53;5.53;;;;;;;10.87;100.00;99466.91;1755857;80;21684;-69
2021/05/31 05:57:42;;;;;;;21.20;6.15;;;;;;;10.78;100.00;99469.28;1756385;81;21018;-65
2021/05/31 06:00:17;;;;;;;6.20;4.47;;;;;;;10.73;100.00;99469.23;1756564;80;21061;-66
2021/05/31 06:02:49;;;;;;;11.95;4.35;;;;;;;10.77;100.00;99478.38;1756358;80;21628;-64
2021/05/31 06:05:24;;;;;;;11.15;4.80;;;;;;;10.83;100.00;99473.88;1755003;80;21034;-66
2021/05/31 06:07:52;;;;;;;8.60;5.37;;;;;;;10.85;100.00;99476.58;1756585;80;21030;-66
2021/05/31 06:10:26;;;;;;;10.10;4.17;;;;;;;10.88;100.00;99475.25;1756704;80;21085;-67
2021/05/31 06:12:53;;;;;;;6.90;4.45;;;;;;;10.96;100.00;99480.67;1735499;82;21073;-69
2021/05/31 06:15:22;;;;;;;17.40;5.20;;;;;;;11.06;100.00;99478.06;1735859;82;21108;-64
2021/05/31 06:17:50;;;;;;;;;;;;;;;11.06;100.00;99479.40;1738527;82;21026;-67
2021/05/31 06:20:16;;;;;;;5.97;4.22;;;;;;;11.20;100.00;99483.26;1736084;82;20218;-65
2021/05/31 06:23:04;;;;;;;7.22;3.77;;;;;;;11.31;100.00;99480.09;1736018;82;21100;-64
2021/05/31 06:25:40;;;;;;;14.03;4.75;;;;;;;11.41;100.00;99488.73;1703159;84;22503;-67
2021/05/31 06:28:24;;;;;;;8.75;3.72;;;;;;;11.53;100.00;99482.62;1702770;84;21147;-65
2021/05/31 06:30:53;;;;;;;5.70;4.10;;;;;;;11.66;100.00;99486.19;1703345;84;20969;-67
2021/05/31 06:33:20;;;;;;;12.90;4.55;;;;;;;11.67;100.00;99487.80;1703062;84;21012;-66
2021/05/31 06:35:50;;;;;;;13.13;4.22;;;;;;;11.71;100.00;99486.20;1702819;84;21124;-64
2021/05/31 06:38:18;;;;;;;11.73;4.45;;;;;;;11.65;100.00;99490.47;1702402;84;21064;-66
2021/05/31 06:40:44;;;;;;;8.08;4.40;;;;;;;11.61;100.00;99487.48;1703237;84;26713;-67
2021/05/31 06:43:12;;;;;;;5.03;4.10;;;;;;;11.51;100.00;99490.96;1702785;84;21011;-67
2021/05/31 06:45:39;;;;;;;8.00;4.45;;;;;;;11.57;100.00;99491.79;1703255;83;20989;-69
2021/05/31 06:48:10;;;;;;;10.73;4.50;;;;;;;11.63;100.00;99495.30;1697955;84;21973;-65
2021/05/31 06:50:40;;;;;;;13.45;6.00;;;;;;;11.67;100.00;99490.48;1697210;84;21177;-67
2021/05/31 06:53:09;;;;;;;8.80;4.87;;;;;;;11.66;100.00;99491.56;1697324;84;21490;-67
2021/05/31 06:55:39;;;;;;;13.62;4.55;;;;;;;11.74;100.00;99494.28;1697062;84;21935;-69
2021/05/31 06:58:08;;;;;;;5.33;3.37;;;;;;;11.92;100.00;99495.72;1697105;84;21856;-68
2021/05/31 07:00:35;;;;;;;7.03;3.52;;;;;;;11.93;100.00;99495.47;1697383;84;22115;-66
2021/05/31 07:03:09;;;;;;;;;;;;;;;11.94;100.00;99497.07;1699750;84;21171;-68
2021/05/31 07:05:38;;;;;;;6.55;3.52;;;;;;;12.04;100.00;99491.45;1696817;84;21158;-70
2021/05/31 07:08:13;;;;;;;6.33;3.62;;;;;;;12.15;100.00;99497.95;1697217;84;21096;-68
2021/05/31 07:10:44;;;;;;;7.47;3.95;;;;;;;12.15;100.00;99491.73;1697259;84;21147;-69
2021/05/31 07:13:12;;;;;;;5.90;3.65;;;;;;;12.20;100.00;99490.44;1696847;84;21139;-68
2021/05/31 07:15:55;;;;;;;9.58;4.10;;;;;;;12.33;100.00;99489.11;1696880;84;21151;-71
2021/05/31 07:18:22;;;;;;;10.85;4.55;;;;;;;12.40;100.00;99488.31;1692901;83;21196;-69
2021/05/31 07:20:53;;;;;;;8.40;3.60;;;;;;;12.55;100.00;99491.02;1696820;84;21111;-67
2021/05/31 07:23:20;;;;;;;6.95;3.62;;;;;;;12.53;100.00;99493.16;1696710;84;21106;-68
2021/05/31 07:25:47;;;;;;;9.18;4.00;;;;;;;12.46;100.00;99492.61;1696705;84;22596;-67
2021/05/31 07:28:19;;;;;;;12.18;4.10;;;;;;;12.35;100.00;99492.34;1696365;84;21137;-68
2021/05/31 07:30:51;;;;;;;6.78;3.52;;;;;;;12.37;100.00;99488.83;1686882;84;21056;-68
2021/05/31 07:33:18;;;;;;;14.68;4.60;;;;;;;12.28;100.00;99495.28;1689729;84;21021;-70
2021/05/31 07:35:45;;;;;;;3.98;3.58;;;;;;;12.35;100.00;99507.15;1689861;84;21025;-67
2021/05/31 07:38:12;;;;;;;7.10;4.47;;;;;;;12.42;100.00;99500.43;1689714;84;21041;-67
2021/05/31 07:40:39;;;;;;;6.33;3.75;;;;;;;12.47;100.00;99503.67;1689427;84;21112;-64
2021/05/31 07:43:06;;;;;;;9.25;5.60;;;;;;;12.76;100.00;99507.97;1689637;84;21122;-69
2021/05/31 07:45:34;;;;;;;6.55;4.15;;;;;;;12.93;100.00;99504.20;1689182;83;21104;-67
2021/05/31 07:48:02;;;;;;;11.93;3.77;;;;;;;13.02;100.00;99507.98;1689695;84;21036;-68
2021/05/31 07:50:30;;;;;;;8.48;4.85;;;;;;;13.07;100.00;99516.86;1689731;84;21104;-67
2021/05/31 07:53:00;;;;;;;5.33;3.45;;;;;;;13.05;100.00;99508.78;1689698;84;21053;-68
2021/05/31 07:55:27;;;;;;;11.40;4.10;;;;;;;12.98;100.00;99506.35;1689670;84;21134;-66
2021/05/31 07:57:54;;;;;;;14.10;4.22;;;;;;;12.85;100.00;99509.60;1689397;84;21045;-68
2021/05/31 08:00:24;;;;;;;7.83;3.58;;;;;;;12.86;100.00;99509.34;1699841;82;21031;-68
2021/05/31 08:02:54;;;;;;;5.78;4.00;;;;;;;12.90;100.00;99520.92;1735776;80;21629;-68
2021/05/31 08:05:23;;;;;;;12.00;3.83;;;;;;;12.96;100.00;99522.52;1737595;81;21653;-67
2021/05/31 08:07:51;;;;;;;4.30;3.50;;;;;;;12.92;100.00;99520.92;1737818;81;21651;-65
2021/05/31 08:10:23;;;;;;;5.78;3.37;;;;;;;12.88;100.00;99509.05;1695663;84;20997;-67
2021/05/31 08:12:54;;;;;;;5.80;4.03;;;;;;;12.77;100.00;99516.34;1695680;83;21052;-69
2021/05/31 08:15:23;;;;;;;7.78;3.00;;;;;;;12.88;100.00;99519.83;1695279;82;21114;-69
2021/05/31 08:17:54;;;;;;;6.25;3.15;;;;;;;13.08;100.00;99526.58;1695048;83;21152;-65
2021/05/31 08:20:24;;;;;;;5.75;3.00;;;;;;;13.07;100.00;99526.84;1695092;83;21050;-64
2021/05/31 08:22:56;;;;;;;5.53;3.08;;;;;;;12.99;100.00;99525.50;1694803;84;20890;-66
2021/05/31 08:25:24;;;;;;;6.05;3.40;;;;;;;13.12;100.00;99524.68;1695217;83;20985;-66
2021/05/31 08:27:52;;;;;;;4.15;3.10;;;;;;;13.17;100.00;99521.98;1695782;83;21611;-65
2021/05/31 08:30:20;;;;;;;10.95;3.35;;;;;;;13.17;100.00;99519.28;1695374;83;21101;-66
2021/05/31 08:32:48;;;;;;;4.05;3.12;;;;;;;13.35;100.00;99520.11;1695736;84;22312;-65
2021/05/31 08:35:15;;;;;;;7.28;3.25;;;;;;;13.47;100.00;99521.13;1695078;83;21069;-65
2021/05/31 08:37:41;;;;;;;8.23;3.10;;;;;;;13.37;100.00;99523.31;1695356;84;21113;-66
2021/05/31 08:40:09;;;;;;;17.25;3.85;;;;;;;13.48;100.00;99524.12;1695465;84;21042;-67
2021/05/31 08:42:37;;;;;;;;;;;;;;;13.48;100.00;99524.12;1698117;84;21580;-67
2021/05/31 08:45:06;;;;;;;10.37;3.20;;;;;;;13.83;100.00;99527.23;1695541;84;21085;-68
2021/05/31 08:47:44;;;;;;;8.70;2.85;;;;;;;13.97;100.00;99530.16;1684172;84;21007;-65
2021/05/31 08:50:14;;;;;;;7.70;3.05;;;;;;;13.87;100.00;99526.95;1682957;85;27000;-69
2021/05/31 08:52:40;;;;;;;9.85;3.20;;;;;;;13.81;100.00;99527.24;1682472;83;21122;-65
2021/05/31 08:55:09;;;;;;;4.85;2.87;;;;;;;13.91;100.00;99525.84;1682086;84;21085;-65
2021/05/31 08:57:36;;;;;;;4.50;2.47;;;;;;;14.32;100.00;99531.05;1678135;84;21486;-65
2021/05/31 09:00:07;;;;;;;6.20;2.80;;;;;;;14.52;100.00;99528.22;1678954;83;21100;-67
2021/05/31 09:02:36;;;;;;;6.33;2.67;;;;;;;14.60;100.00;99527.39;1685896;84;21148;-67
2021/05/31 09:05:05;;;;;;;5.47;2.45;;;;;;;14.56;100.00;99527.96;1689038;84;21104;-71
2021/05/31 09:07:34;;;;;;;3.50;2.70;;;;;;;14.57;100.00;99519.31;1713553;82;21528;-68
2021/05/31 09:10:06;;;;;;;4.30;2.60;;;;;;;14.54;100.00;99523.93;1705429;83;21791;-67
2021/05/31 09:12:37;;;;;;;4.22;2.80;;;;;;;14.87;100.00;99520.16;1731123;81;21681;-68
2021/05/31 09:15:10;;;;;;;6.00;2.08;;;;;;;14.97;100.00;99523.61;1731108;82;20922;-69
2021/05/31 09:17:39;;;;;;;3.92;2.22;;;;;;;14.87;100.00;99524.22;1730534;82;21009;-68
2021/05/31 09:20:07;;;;;;;4.75;2.30;;;;;;;14.83;100.00;99521.28;1730507;81;20937;-68
2021/05/31 09:22:53;;;;;;;3.80;2.90;;;;;;;15.00;100.00;99526.28;1716122;82;21987;-65
2021/05/31 09:25:31;;;;;;;7.72;3.47;;;;;;;14.93;100.00;99529.30;1731021;81;28090;-66
2021/05/31 09:28:08;;;;;;;5.33;2.40;;;;;;;15.08;100.00;99535.67;1731368;81;21042;-66
2021/05/31 09:30:42;;;;;;;7.97;2.00;;;;;;;15.28;100.00;99533.33;1730640;81;21109;-65
2021/05/31 09:33:15;;;;;;;3.35;2.22;;;;;;;15.42;100.00;99536.42;1716997;82;20933;-67
2021/05/31 09:35:44;;;;;;;2.98;2.10;;;;;;;15.38;100.00;99540.78;1731778;81;21075;-66
2021/05/31 09:38:15;;;;;;;3.15;1.90;;;;;;;15.18;100.00;99530.97;1731245;82;21595;-66
2021/05/31 09:40:54;;;;;;;3.80;2.10;;;;;;;15.13;100.00;99532.38;1731599;82;21045;-64
2021/05/31 09:43:24;;;;;;;2.10;1.80;;;;;;;15.18;100.00;99527.47;1731438;82;21102;-66
2021/05/31 09:45:50;;;;;;;6.55;3.20;;;;;;;15.04;100.00;99528.66;1732527;81;21085;-66
2021/05/31 09:48:17;;;;;;;2.98;2.17;;;;;;;15.21;100.00;99529.08;1750909;81;21088;-66
2021/05/31 09:50:58;;;;;;;2.77;1.92;;;;;;;15.22;100.00;99537.44;1750780;80;20963;-63
2021/05/31 09:53:26;;;;;;;4.55;2.35;;;;;;;14.95;100.00;99531.73;1750537;81;21081;-64
2021/05/31 09:55:53;;;;;;;6.35;2.33;;;;;;;14.72;100.00;99525.97;1727954;81;20962;-66
2021/05/31 09:58:20;;;;;;;4.85;2.22;;;;;;;14.69;100.00;99525.16;1750680;80;21081;-66
2021/05/31 10:00:54;;;;;;;6.12;2.10;;;;;;;14.82;100.00;99525.61;1702904;81;21108;-65
2021/05/31 10:03:39;;;;;;;10.28;2.60;;;;;;;14.90;100.00;99529.08;1726609;81;20990;-65
2021/05/31 10:06:09;;;;;;;4.72;2.15;;;;;;;15.03;100.00;99528.97;1749121;81;21620;-65
2021/05/31 10:11:04;;;;;;;6.75;2.40;;;;;;;14.96;100.00;99527.93;1747932;80;20950;-67
2021/05/31 10:13:32;;;;;;;3.55;2.83;;;;;;;14.81;100.00;99524.01;1750573;81;21914;-68
2021/05/31 10:16:02;;;;;;;3.25;2.42;;;;;;;14.62;100.00;99531.42;1750906;80;21822;-68
2021/05/31 10:18:30;;;;;;;3.55;2.15;;;;;;;14.49;100.00;99527.44;1750369;81;21157;-65
2021/05/31 10:21:00;;;;;;;2.65;2.15;;;;;;;14.53;100.00;99532.58;1750744;81;20903;-67
2021/05/31 10:23:27;;;;;;;6.92;2.60;;;;;;;14.45;100.00;99530.42;1750872;80;21086;-67
2021/05/31 10:26:02;;;;;;;6.30;2.60;;;;;;;14.39;100.00;99527.50;1751275;80;21073;-66
2021/05/31 10:28:34;;;;;;;5.22;2.30;;;;;;;14.56;100.00;99532.56;1749394;80;21081;-70
2021/05/31 10:31:05;;;;;;;3.58;2.20;;;;;;;14.63;100.00;99532.25;1750545;80;21041;-64
2021/05/31 10:33:38;;;;;;;4.47;2.10;;;;;;;14.67;100.00;99535.44;1750783;81;21006;-68
2021/05/31 10:36:22;;;;;;;3.15;2.42;;;;;;;14.70;100.00;99531.37;1749343;80;20999;-68
2021/05/31 10:38:53;;;;;;;7.37;2.33;;;;;;;14.63;100.00;99526.85;1747816;80;21289;-68
2021/05/31 10:41:23;;;;;;;3.15;2.52;;;;;;;14.68;100.00;99520.86;1742303;80;20943;-69
2021/05/31 10:43:54;;;;;;;5.20;1.98;;;;;;;14.96;100.00;99527.38;1723881;83;20930;-67
2021/05/31 10:46:35;;;;;;;4.22;2.08;;;;;;;15.21;100.00;99529.08;1721392;81;21021;-69
2021/05/31 10:49:05;;;;;;;2.22;2.02;;;;;;;15.27;99.35;99521.71;1693783;83;21154;-67
2021/05/31 10:51:39;;;;;;;3.60;1.92;;;;;;;15.46;100.00;99524.50;1694433;83;21746;-67
2021/05/31 10:54:15;;;;;;;6.15;1.70;;;;;;;15.65;100.00;99521.84;1723589;83;21092;-71
2021/05/31 10:56:48;;;;;;;3.75;1.60;;;;;;;15.94;97.07;99523.70;1694255;83;21072;-68
2021/05/31 10:59:19;;;;;;;4.45;2.27;;;;;;;16.16;91.68;99523.95;1688627;83;21443;-66
2021/05/31 11:01:48;;;;;;;6.80;1.98;;;;;;;16.13;89.92;99519.69;1724621;81;21137;-67
2021/05/31 11:04:23;;;;;;;3.37;1.50;;;;;;;16.35;93.85;99534.01;1708194;83;21154;-68
2021/05/31 11:06:54;;;;;;;4.03;2.10;;;;;;;16.65;86.73;99527.33;1724713;83;21068;-66
2021/05/31 11:09:32;;;;;;;1.98;1.47;;;;;;;16.80;85.35;99530.38;1726492;82;20913;-66
2021/05/31 11:12:08;;;;;;;3.67;1.57;;;;;;;16.97;82.25;99532.55;1726766;81;21582;-67
2021/05/31 11:14:43;;;;;;;4.12;1.60;;;;;;;17.10;84.07;99531.80;1707387;83;21097;-64
2021/05/31 11:17:18;;;;;;;1.90;1.55;;;;;;;17.10;84.07;99531.80;1729995;81;21065;-66
2021/05/31 11:19:59;;;;;;;1.92;1.62;;;;;;;17.25;79.94;99536.95;1729425;81;21884;-65
2021/05/31 11:22:29;;;;;;;2.77;2.08;;;;;;;16.77;81.67;99539.88;1719159;83;21602;-64
2021/05/31 11:25:05;;;;;;;4.10;2.10;;;;;;;16.37;82.90;99534.53;1686453;85;21061;-69
2021/05/31 11:27:37;;;;;;;3.55;2.10;;;;;;;16.25;89.63;99538.45;1643488;87;21644;-68
2021/05/31 11:30:11;;;;;;;2.45;1.80;;;;;;;16.32;83.97;99535.95;1644564;87;21108;-67
2021/05/31 11:32:42;;;;;;;2.77;1.85;;;;;;;16.00;86.82;99545.02;1644234;87;21002;-66
2021/05/31 11:35:13;;;;;;;2.22;1.70;;;;;;;15.96;87.00;99536.41;1644136;87;20963;-65
2021/05/31 11:37:42;;;;;;;2.67;2.00;;;;;;;15.84;90.36;99535.46;1644092;85;21711;-66
2021/05/31 11:40:30;;;;;;;8.13;2.17;;;;;;;15.90;91.95;99534.84;1643997;87;21103;-66
2021/05/31 11:43:02;;;;;;;2.60;1.92;;;;;;;15.77;91.80;99535.00;1642948;87;21618;-66
2021/05/31 11:45:34;;;;;;;2.20;2.00;;;;;;;15.63;92.29;99532.17;1643108;87;21014;-64
2021/05/31 11:48:18;;;;;;;2.22;1.80;;;;;;;15.55;94.14;99528.72;1661639;85;21082;-67
2021/05/31 11:50:48;;;;;;;6.83;2.20;;;;;;;15.49;90.65;99522.57;1671448;85;21568;-67
2021/05/31 11:53:17;;;;;;;3.62;2.02;;;;;;;15.55;93.02;99527.37;1722257;83;21149;-67
2021/05/31 11:55:46;;;;;;;2.10;1.90;;;;;;;15.51;94.34;99526.35;1702634;81;20985;-66
2021/05/31 11:58:13;;;;;;;6.65;2.55;;;;;;;15.45;90.95;99522.88;1702737;84;20969;-67
2021/05/31 12:00:43;;;;;;;3.95;2.55;;;;;;;15.51;89.65;99527.15;1739331;80;20941;-65